createdAt,value
2022-12-11T00:02:51.104Z,97600.56
2022-12-11T00:05:53.795Z,97593.91
2022-12-11T00:08:56.504Z,97590.47
2022-12-11T00:11:59.207Z,97594.28
2022-12-11T00:15:01.912Z,97586.38
2022-12-11T00:18:07.331Z,97593.63
2022-12-11T00:21:14.065Z,97590.38
2022-12-11T00:24:16.790Z,97588.31
2022-12-11T00:27:19.573Z,97588.69
2022-12-11T00:30:22.289Z,97592.25
2022-12-11T00:33:27.876Z,97597.47
2022-12-11T00:36:30.543Z,97592.41
2022-12-11T00:39:33.280Z,97582.81
2022-12-11T00:42:35.988Z,97582.47
2022-12-11T00:45:39.095Z,97581.56
2022-12-11T00:48:43.363Z,97582.13
2022-12-11T00:51:46.057Z,97583.75
2022-12-11T00:54:48.918Z,97586.84
2022-12-11T00:57:52.441Z,97591.25
2022-12-11T01:00:55.153Z,97587.53
2022-12-11T01:03:59.351Z,97593.28
2022-12-11T01:07:02.155Z,97599.59
2022-12-11T01:10:23.872Z,97598.94
2022-12-11T01:13:26.539Z,97601.13
2022-12-11T01:16:29.290Z,97607.94
2022-12-11T01:19:33.773Z,97613.66
2022-12-11T01:22:36.451Z,97613.44
2022-12-11T01:25:39.134Z,97612.34
2022-12-11T01:28:42.817Z,97616.97
2022-12-11T01:31:45.511Z,97619.59
2022-12-11T01:34:49.534Z,97610.06
2022-12-11T01:37:52.202Z,97614.34
2022-12-11T01:40:54.884Z,97613.16
2022-12-11T01:44:02.222Z,97614.38
2022-12-11T01:47:04.966Z,97611.41
2022-12-11T01:50:09.841Z,97613.47
2022-12-11T01:53:17.830Z,97625.59
2022-12-11T01:56:21.085Z,97632.50
2022-12-11T01:59:27.976Z,97622.97
2022-12-11T02:02:32.051Z,97625.69
2022-12-11T02:05:36.141Z,97628.50
2022-12-11T02:08:38.900Z,97629.91
2022-12-11T02:11:52.925Z,97632.84
2022-12-11T02:15:03.845Z,97632.50
2022-12-11T02:18:19.884Z,97633.94
2022-12-11T02:21:27.805Z,97639.00
2022-12-11T02:24:48.158Z,97630.06
2022-12-11T02:27:56.675Z,97625.22
2022-12-11T02:31:05.538Z,97618.50
2022-12-11T02:34:13.584Z,97617.88
2022-12-11T02:37:22.894Z,97617.41
2022-12-11T02:40:29.765Z,97625.03
2022-12-11T02:43:34.163Z,97625.25
2022-12-11T02:46:39.020Z,97626.78
2022-12-11T02:49:44.968Z,97629.53
2022-12-11T02:52:51.502Z,97626.91
2022-12-11T02:56:00.386Z,97629.72
2022-12-11T02:59:10.009Z,97624.75
2022-12-11T03:02:16.266Z,97623.94
2022-12-11T03:05:19.126Z,97624.28
2022-12-11T03:08:21.792Z,97623.47
2022-12-11T03:11:24.656Z,97618.59
2022-12-11T03:14:27.288Z,97615.13
2022-12-11T03:17:36.586Z,97622.81
2022-12-11T03:20:44.468Z,97624.06
2022-12-11T03:23:53.817Z,97615.94
2022-12-11T03:27:01.130Z,97617.31
2022-12-11T03:30:07.645Z,97625.31
2022-12-11T03:33:15.232Z,97622.31
2022-12-11T03:36:23.196Z,97623.56
2022-12-11T03:39:31.106Z,97619.53
2022-12-11T03:42:35.119Z,97623.22
2022-12-11T03:45:40.394Z,97627.66
2022-12-11T03:48:47.659Z,97623.22
2022-12-11T03:51:53.098Z,97626.25
2022-12-11T03:54:59.575Z,97618.00
2022-12-11T03:58:02.450Z,97621.56
2022-12-11T04:01:05.440Z,97619.50
2022-12-11T04:04:09.518Z,97612.59
2022-12-11T04:07:12.377Z,97614.53
2022-12-11T04:10:15.127Z,97609.28
2022-12-11T04:13:17.768Z,97600.50
2022-12-11T04:16:19.449Z,97597.22
2022-12-11T04:19:41.887Z,97595.81
2022-12-11T04:23:02.313Z,97582.94
2022-12-11T04:26:07.081Z,97586.16
2022-12-11T04:29:09.733Z,97580.94
2022-12-11T04:32:12.647Z,97577.13
2022-12-11T04:35:17.022Z,97572.03
2022-12-11T04:38:19.731Z,97571.16
2022-12-11T04:41:22.352Z,97559.25
2022-12-11T04:44:24.980Z,97558.38
2022-12-11T04:47:27.875Z,97560.69
2022-12-11T04:50:32.131Z,97562.06
2022-12-11T04:53:34.951Z,97558.41
2022-12-11T04:56:37.627Z,97560.78
2022-12-11T04:59:40.373Z,97570.97
2022-12-11T05:02:43.403Z,97573.69
2022-12-11T05:05:50.589Z,97580.56
2022-12-11T05:08:53.496Z,97570.97
2022-12-11T05:11:56.516Z,97570.03
2022-12-11T05:14:59.199Z,97555.47
2022-12-11T05:18:01.830Z,97564.47
2022-12-11T05:21:08.454Z,97575.69
2022-12-11T05:24:11.092Z,97578.09
2022-12-11T05:27:14.232Z,97583.88
2022-12-11T05:30:17.079Z,97581.81
2022-12-11T05:33:19.744Z,97584.47
2022-12-11T05:36:26.005Z,97564.19
2022-12-11T05:39:28.635Z,97581.25
2022-12-11T05:42:31.375Z,97578.03
2022-12-11T05:45:34.155Z,97580.00
2022-12-11T05:48:37.691Z,97577.59
2022-12-11T05:51:43.267Z,97573.81
2022-12-11T05:54:45.959Z,97570.41
2022-12-11T05:57:48.592Z,97565.06
2022-12-11T06:00:51.225Z,97570.50
2022-12-11T06:03:55.237Z,97576.53
2022-12-11T06:06:59.215Z,97570.38
2022-12-11T06:10:01.892Z,97576.09
2022-12-11T06:13:04.925Z,97571.69
2022-12-11T06:16:09.182Z,97574.97
2022-12-11T06:19:14.600Z,97570.66
2022-12-11T06:22:18.627Z,97561.53
2022-12-11T06:25:21.311Z,97561.19
2022-12-11T06:28:23.965Z,97563.22
2022-12-11T06:31:26.648Z,97562.59
2022-12-11T06:34:29.401Z,97559.03
2022-12-11T06:37:33.416Z,97554.00
2022-12-11T06:40:36.105Z,97554.63
2022-12-11T06:43:41.126Z,97549.59
2022-12-11T06:46:43.830Z,97549.75
2022-12-11T06:49:46.464Z,97555.81
2022-12-11T06:52:50.779Z,97556.88
2022-12-11T06:55:58.241Z,97565.78
2022-12-11T06:59:07.287Z,97571.44
2022-12-11T07:02:15.098Z,97576.31
2022-12-11T07:05:20.130Z,97582.78
2022-12-11T07:08:26.852Z,97594.31
2022-12-11T07:11:31.749Z,97595.53
2022-12-11T07:14:35.614Z,97593.50
2022-12-11T07:17:40.612Z,97583.78
2022-12-11T07:20:45.002Z,97585.78
2022-12-11T07:23:50.650Z,97587.19
2022-12-11T07:26:54.027Z,97582.69
2022-12-11T07:29:57.422Z,97583.22
2022-12-11T07:33:01.107Z,97581.59
2022-12-11T07:36:04.742Z,97583.09
2022-12-11T07:39:10.119Z,97593.75
2022-12-11T07:42:14.506Z,97588.56
2022-12-11T07:45:19.257Z,97586.84
2022-12-11T07:48:23.774Z,97593.72
2022-12-11T07:51:30.199Z,97592.03
2022-12-11T07:54:35.856Z,97594.03
2022-12-11T07:57:40.462Z,97583.50
2022-12-11T08:00:48.573Z,97580.25
2022-12-11T08:03:53.537Z,97578.78
2022-12-11T08:06:58.115Z,97584.16
2022-12-11T08:10:04.473Z,97584.44
2022-12-11T08:13:09.099Z,97585.63
2022-12-11T08:16:15.784Z,97573.81
2022-12-11T08:19:20.821Z,97575.25
2022-12-11T08:22:26.415Z,97578.47
2022-12-11T08:25:33.134Z,97575.03
2022-12-11T08:28:38.363Z,97575.84
2022-12-11T08:31:43.738Z,97577.53
2022-12-11T08:34:49.390Z,97588.50
2022-12-11T08:37:54.616Z,97589.53
2022-12-11T08:41:00.917Z,97583.63
2022-12-11T08:44:06.153Z,97587.25
2022-12-11T08:47:11.714Z,97590.19
2022-12-11T08:50:16.514Z,97589.16
2022-12-11T08:53:21.476Z,97584.91
2022-12-11T08:56:28.708Z,97591.66
2022-12-11T08:59:33.446Z,97590.13
2022-12-11T09:02:39.076Z,97586.09
2022-12-11T09:05:44.789Z,97571.56
2022-12-11T09:08:52.931Z,97567.59
2022-12-11T09:12:00.480Z,97572.91
2022-12-11T09:15:05.140Z,97566.81
2022-12-11T09:18:09.392Z,97563.03
2022-12-11T09:21:16.046Z,97566.28
2022-12-11T09:24:23.565Z,97560.13
2022-12-11T09:27:29.563Z,97560.28
2022-12-11T09:30:34.690Z,97567.03
2022-12-11T09:33:39.353Z,97564.28
2022-12-11T09:36:45.106Z,97558.66
2022-12-11T09:39:49.046Z,97559.44
2022-12-11T09:42:59.560Z,97562.63
2022-12-11T09:46:07.334Z,97556.19
2022-12-11T09:49:24.549Z,97562.91
2022-12-11T09:52:36.474Z,97559.47
2022-12-11T09:55:52.170Z,97555.25
2022-12-11T09:59:06.114Z,97551.31
2022-12-11T10:02:26.838Z,97550.31
2022-12-11T10:05:40.422Z,97555.25
2022-12-11T10:08:52.887Z,97545.03
2022-12-11T10:12:07.991Z,97545.72
2022-12-11T10:15:36.572Z,97548.03
2022-12-11T10:18:42.078Z,97545.84
2022-12-11T10:21:48.839Z,97540.78
2022-12-11T10:25:10.706Z,97526.78
2022-12-11T10:28:17.618Z,97523.59
2022-12-11T10:31:34.195Z,97518.63
2022-12-11T10:34:42.991Z,97518.75
2022-12-11T10:37:48.548Z,97515.09
2022-12-11T10:40:58.700Z,97515.88
2022-12-11T10:44:03.979Z,97523.69
2022-12-11T10:47:14.465Z,97510.81
2022-12-11T10:50:27.176Z,97508.66
2022-12-11T10:53:32.485Z,97504.03
2022-12-11T10:56:39.582Z,97490.00
2022-12-11T10:59:49.744Z,97487.94
2022-12-11T11:02:56.784Z,97495.63
2022-12-11T11:06:06.312Z,97493.06
2022-12-11T11:09:38.525Z,97494.09
2022-12-11T11:12:44.902Z,97488.84
2022-12-11T11:15:49.941Z,97490.31
2022-12-11T11:18:58.503Z,97483.66
2022-12-11T11:22:07.460Z,97478.16
2022-12-11T11:25:20.009Z,97477.16
2022-12-11T11:28:27.626Z,97478.69
2022-12-11T11:31:37.381Z,97473.41
2022-12-11T11:34:44.147Z,97472.75
2022-12-11T11:38:00.045Z,97468.81
2022-12-11T11:41:15.269Z,97471.50
2022-12-11T11:44:26.800Z,97470.47
2022-12-11T11:47:38.324Z,97467.66
2022-12-11T11:50:50.891Z,97460.19
2022-12-11T11:53:59.756Z,97455.22
2022-12-11T11:57:13.312Z,97451.09
2022-12-11T12:00:23.207Z,97455.19
2022-12-11T12:03:29.410Z,97457.66
2022-12-11T12:07:01.082Z,97453.84
2022-12-11T12:10:17.077Z,97449.69
2022-12-11T12:13:49.065Z,97449.06
2022-12-11T12:17:03.391Z,97457.47
2022-12-11T12:20:19.864Z,97455.94
2022-12-11T12:23:41.251Z,97453.41
2022-12-11T12:26:50.807Z,97455.25
2022-12-11T12:30:05.065Z,97449.47
2022-12-11T12:33:30.314Z,97447.13
2022-12-11T12:36:45.161Z,97446.06
2022-12-11T12:39:58.643Z,97447.22
2022-12-11T12:43:27.993Z,97443.09
2022-12-11T12:46:48.315Z,97438.00
2022-12-11T12:49:55.755Z,97436.69
2022-12-11T12:53:00.486Z,97431.50
2022-12-11T12:56:08.379Z,97433.50
2022-12-11T12:59:23.891Z,97435.44
2022-12-11T13:02:29.685Z,97432.47
2022-12-11T13:05:36.698Z,97429.50
2022-12-11T13:08:44.210Z,97426.84
2022-12-11T13:11:54.175Z,97431.72
2022-12-11T13:14:59.475Z,97429.28
2022-12-11T13:18:07.456Z,97426.34
2022-12-11T13:21:29.856Z,97418.66
2022-12-11T13:24:35.693Z,97422.19
2022-12-11T13:27:43.992Z,97425.59
2022-12-11T13:31:00.343Z,97434.81
2022-12-11T13:34:18.086Z,97428.69
2022-12-11T13:37:29.782Z,97431.66
2022-12-11T13:40:40.864Z,97423.69
2022-12-11T13:43:49.530Z,97411.84
2022-12-11T13:46:57.329Z,97413.84
2022-12-11T13:50:16.362Z,97414.78
2022-12-11T13:53:22.879Z,97411.81
2022-12-11T13:56:27.754Z,97415.78
2022-12-11T13:59:37.137Z,97415.59
2022-12-11T14:02:43.775Z,97425.81
2022-12-11T14:05:49.840Z,97434.53
2022-12-11T14:08:59.898Z,97436.47
2022-12-11T14:12:05.281Z,97439.19
2022-12-11T14:15:18.462Z,97447.75
2022-12-11T14:18:26.976Z,97445.41
2022-12-11T14:21:32.060Z,97440.22
2022-12-11T14:24:37.284Z,97440.97
2022-12-11T14:27:50.468Z,97442.78
2022-12-11T14:31:00.087Z,97458.09
2022-12-11T14:34:11.202Z,97457.34
2022-12-11T14:37:21.428Z,97455.31
2022-12-11T14:40:30.270Z,97466.19
2022-12-11T14:43:42.283Z,97463.75
2022-12-11T14:46:52.276Z,97466.19
2022-12-11T14:50:01.845Z,97466.50
2022-12-11T14:53:12.470Z,97476.50
2022-12-11T14:56:21.529Z,97474.34
2022-12-11T14:59:31.868Z,97469.38
2022-12-11T15:02:39.439Z,97467.13
2022-12-11T15:05:52.077Z,97473.78
2022-12-11T15:08:57.472Z,97473.09
2022-12-11T15:12:12.212Z,97474.28
2022-12-11T15:15:19.128Z,97477.50
2022-12-11T15:18:29.335Z,97473.03
2022-12-11T15:21:37.208Z,97474.66
2022-12-11T15:24:45.361Z,97480.63
2022-12-11T15:27:53.979Z,97477.19
2022-12-11T15:31:01.094Z,97485.44
2022-12-11T15:34:25.434Z,97490.50
2022-12-11T15:37:33.038Z,97488.53
2022-12-11T15:40:37.932Z,97488.53
2022-12-11T15:43:42.668Z,97490.38
2022-12-11T15:46:47.448Z,97495.19
2022-12-11T15:49:56.734Z,97494.38
2022-12-11T15:53:01.728Z,97498.88
2022-12-11T15:56:07.010Z,97497.16
2022-12-11T15:59:12.842Z,97506.81
2022-12-11T16:02:20.059Z,97500.00
2022-12-11T16:05:29.104Z,97510.47
2022-12-11T16:08:35.440Z,97508.97
2022-12-11T16:11:43.960Z,97504.84
2022-12-11T16:14:50.293Z,97511.63
2022-12-11T16:18:04.775Z,97506.69
2022-12-11T16:21:14.520Z,97508.06
2022-12-11T16:24:24.372Z,97509.91
2022-12-11T16:27:30.711Z,97504.72
2022-12-11T16:30:39.098Z,97497.75
2022-12-11T16:33:44.722Z,97500.97
2022-12-11T16:36:52.102Z,97505.69
2022-12-11T16:39:57.593Z,97496.72
2022-12-11T16:43:04.431Z,97505.88
2022-12-11T16:46:10.517Z,97502.44
2022-12-11T16:49:15.376Z,97495.66
2022-12-11T16:52:22.459Z,97498.41
2022-12-11T16:55:26.925Z,97497.94
2022-12-11T16:58:31.540Z,97502.97
2022-12-11T17:01:37.313Z,97505.63
2022-12-11T17:04:42.404Z,97505.97
2022-12-11T17:07:48.732Z,97518.09
2022-12-11T17:10:54.423Z,97503.66
2022-12-11T17:14:00.710Z,97508.94
2022-12-11T17:17:05.651Z,97503.06
2022-12-11T17:20:11.994Z,97506.53
2022-12-11T17:23:18.278Z,97507.78
2022-12-11T17:26:25.893Z,97508.94
2022-12-11T17:29:31.165Z,97511.69
2022-12-11T17:32:36.157Z,97503.91
2022-12-11T17:35:42.403Z,97504.59
2022-12-11T17:38:50.602Z,97502.44
2022-12-11T17:41:55.410Z,97505.63
2022-12-11T17:45:00.924Z,97501.50
2022-12-11T17:48:09.482Z,97494.53
2022-12-11T17:51:21.256Z,97501.88
2022-12-11T17:54:27.455Z,97491.06
2022-12-11T17:57:32.182Z,97495.66
2022-12-11T18:00:37.320Z,97487.41
2022-12-11T18:03:45.413Z,97490.28
2022-12-11T18:06:50.546Z,97496.72
2022-12-11T18:09:57.133Z,97485.81
2022-12-11T18:13:01.866Z,97490.50
2022-12-11T18:16:10.175Z,97491.75
2022-12-11T18:19:16.148Z,97499.31
2022-12-11T18:22:21.241Z,97489.34
2022-12-11T18:25:28.470Z,97486.94
2022-12-11T18:28:33.195Z,97485.53
2022-12-11T18:31:42.421Z,97490.75
2022-12-11T18:34:48.012Z,97490.84
2022-12-11T18:37:52.773Z,97491.03
2022-12-11T18:40:58.895Z,97494.44
2022-12-11T18:44:09.529Z,97489.91
2022-12-11T18:47:15.049Z,97490.34
2022-12-11T18:50:20.060Z,97497.16
2022-12-11T18:53:25.080Z,97498.38
2022-12-11T18:56:31.388Z,97502.69
2022-12-11T18:59:36.696Z,97496.03
2022-12-11T19:02:41.524Z,97496.75
2022-12-11T19:05:46.647Z,97505.28
2022-12-11T19:08:51.667Z,97503.75
2022-12-11T19:11:58.272Z,97503.16
2022-12-11T19:15:02.963Z,97499.94
2022-12-11T19:18:08.218Z,97498.94
2022-12-11T19:21:14.003Z,97497.31
2022-12-11T19:24:20.387Z,97496.59
2022-12-11T19:27:26.733Z,97493.81
2022-12-11T19:30:32.057Z,97495.38
2022-12-11T19:33:37.189Z,97496.88
2022-12-11T19:36:41.908Z,97501.09
2022-12-11T19:39:46.881Z,97498.28
2022-12-11T19:42:55.781Z,97493.44
2022-12-11T19:46:03.294Z,97499.50
2022-12-11T19:49:08.240Z,97499.50
2022-12-11T19:52:13.046Z,97516.00
2022-12-11T19:55:20.486Z,97501.66
2022-12-11T19:58:26.493Z,97507.03
2022-12-11T20:01:34.014Z,97507.06
2022-12-11T20:04:38.827Z,97514.63
2022-12-11T20:07:44.973Z,97516.75
2022-12-11T20:10:49.515Z,97517.91
2022-12-11T20:13:58.799Z,97517.84
2022-12-11T20:17:13.559Z,97512.78
2022-12-11T20:20:20.105Z,97522.25
2022-12-11T20:23:25.930Z,97526.16
2022-12-11T20:26:32.804Z,97526.63
2022-12-11T20:29:39.418Z,97527.63
2022-12-11T20:32:43.954Z,97520.91
2022-12-11T20:35:50.351Z,97523.22
2022-12-11T20:38:57.919Z,97517.53
2022-12-11T20:42:05.176Z,97520.06
2022-12-11T20:45:12.061Z,97526.91
2022-12-11T20:48:17.351Z,97518.34
2022-12-11T20:51:26.130Z,97520.97
2022-12-11T20:54:30.994Z,97524.78
2022-12-11T20:57:40.536Z,97524.13
2022-12-11T21:15:54.297Z,97527.53
2022-12-11T21:19:02.008Z,97528.06
2022-12-11T21:22:06.726Z,97529.22
2022-12-11T21:25:13.918Z,97520.88
2022-12-11T21:28:18.793Z,97523.06
2022-12-11T21:31:27.152Z,97515.06
2022-12-11T21:34:31.965Z,97515.28
2022-12-11T21:37:37.026Z,97519.69
2022-12-11T21:40:42.006Z,97522.31
2022-12-11T21:44:40.797Z,97517.97
2022-12-11T21:47:14.833Z,97520.59
2022-12-11T21:50:22.829Z,97527.16
2022-12-11T21:53:27.960Z,97528.09
2022-12-11T21:56:33.060Z,97527.09
2022-12-11T21:59:38.239Z,97526.28
2022-12-11T22:02:45.575Z,97532.72
2022-12-11T22:05:50.740Z,97536.63
2022-12-11T22:08:55.746Z,97538.38
2022-12-11T22:12:00.288Z,97541.25
2022-12-11T22:15:04.642Z,97536.53
2022-12-11T22:18:10.720Z,97535.53
2022-12-11T22:21:15.668Z,97538.19
2022-12-11T22:24:21.729Z,97539.22
2022-12-11T22:27:26.552Z,97547.47
2022-12-11T22:30:30.841Z,97539.22
2022-12-11T22:33:39.383Z,97540.47
2022-12-11T22:36:43.813Z,97541.16
2022-12-11T22:39:47.852Z,97537.47
2022-12-11T22:42:55.063Z,97536.81
2022-12-11T22:46:02.758Z,97539.31
2022-12-11T22:49:09.196Z,97542.47
2022-12-11T22:52:13.701Z,97541.81
2022-12-11T22:55:19.159Z,97533.06
2022-12-11T22:58:23.864Z,97535.25
2022-12-11T23:01:31.596Z,97544.53
2022-12-11T23:04:37.591Z,97544.53
2022-12-11T23:07:42.133Z,97531.94
2022-12-11T23:10:46.850Z,97539.75
2022-12-11T23:13:52.038Z,97544.34
2022-12-11T23:16:56.748Z,97541.47
2022-12-11T23:20:04.355Z,97546.16
2022-12-11T23:23:09.829Z,97537.22
2022-12-11T23:26:16.067Z,97540.44
2022-12-11T23:29:20.989Z,97553.63
2022-12-11T23:32:26.028Z,97544.56
2022-12-11T23:35:32.333Z,97549.75
2022-12-11T23:38:37.596Z,97549.44
2022-12-11T23:41:42.350Z,97550.47
2022-12-11T23:44:47.561Z,97552.44
2022-12-11T23:47:52.424Z,97547.50
2022-12-11T23:51:03.961Z,97538.34
2022-12-11T23:54:09.319Z,97538.09
2022-12-11T23:57:14.071Z,97540.75
